createdAt,value
2019-01-30T00:02:07.644Z,1.74
2019-01-30T00:04:36.751Z,1.94
2019-01-30T00:07:05.950Z,1.83
2019-01-30T00:09:35.100Z,1.83
2019-01-30T00:12:04.514Z,1.86
2019-01-30T00:14:33.646Z,1.88
2019-01-30T00:17:02.822Z,1.93
2019-01-30T00:19:31.939Z,1.92
2019-01-30T00:22:01.161Z,1.96
2019-01-30T00:24:30.294Z,1.97
2019-01-30T00:26:59.431Z,1.91
2019-01-30T00:29:28.625Z,1.97
2019-01-30T00:31:57.786Z,2.01
2019-01-30T00:34:26.922Z,2.01
2019-01-30T00:36:56.088Z,2.03
2019-01-30T00:39:25.260Z,2.03
2019-01-30T00:41:54.434Z,2.01
2019-01-30T00:44:23.521Z,1.92
2019-01-30T00:46:52.676Z,1.96
2019-01-30T00:49:21.835Z,1.90
2019-01-30T00:51:50.954Z,1.95
2019-01-30T00:54:20.095Z,1.87
2019-01-30T00:56:49.243Z,1.80
2019-01-30T00:59:18.434Z,1.80
2019-01-30T01:01:47.548Z,1.79
2019-01-30T01:04:16.708Z,1.80
2019-01-30T01:06:45.838Z,1.72
2019-01-30T01:09:15.145Z,1.71
2019-01-30T01:11:44.243Z,1.74
2019-01-30T01:14:13.564Z,1.62
2019-01-30T01:16:42.728Z,1.57
2019-01-30T01:19:11.827Z,1.65
2019-01-30T01:21:41.031Z,1.56
2019-01-30T01:24:10.123Z,1.61
2019-01-30T01:26:39.430Z,1.56
2019-01-30T01:29:08.556Z,1.50
2019-01-30T01:31:37.725Z,1.58
2019-01-30T01:34:07.046Z,1.46
2019-01-30T01:36:36.286Z,1.43
2019-01-30T01:39:07.970Z,1.36
2019-01-30T01:41:37.117Z,1.28
2019-01-30T01:44:06.231Z,1.16
2019-01-30T01:46:35.483Z,1.05
2019-01-30T01:49:04.759Z,1.05
2019-01-30T01:51:33.924Z,0.94
2019-01-30T01:54:03.062Z,0.85
2019-01-30T01:56:32.231Z,0.83
2019-01-30T01:59:01.397Z,0.85
2019-01-30T02:01:30.616Z,0.69
2019-01-30T02:03:59.789Z,0.59
2019-01-30T02:06:29.046Z,0.69
2019-01-30T02:08:58.236Z,0.72
2019-01-30T02:11:27.441Z,0.74
2019-01-30T02:13:56.629Z,0.71
2019-01-30T02:16:25.823Z,0.60
2019-01-30T02:18:54.961Z,0.56
2019-01-30T02:21:24.585Z,0.57
2019-01-30T02:23:53.771Z,0.58
2019-01-30T02:26:22.924Z,0.56
2019-01-30T02:28:52.070Z,0.69
2019-01-30T02:31:21.310Z,0.58
2019-01-30T02:33:50.472Z,0.53
2019-01-30T02:36:19.636Z,0.53
2019-01-30T02:38:48.856Z,0.51
2019-01-30T02:41:17.985Z,0.54
2019-01-30T02:43:49.800Z,0.49
2019-01-30T02:46:18.894Z,0.38
2019-01-30T02:48:48.214Z,0.41
2019-01-30T02:51:17.345Z,0.54
2019-01-30T02:53:46.446Z,0.50
2019-01-30T02:56:15.689Z,0.50
2019-01-30T02:58:44.851Z,0.41
2019-01-30T03:01:14.012Z,0.44
2019-01-30T03:03:43.220Z,0.44
2019-01-30T03:06:12.371Z,0.47
2019-01-30T03:08:41.794Z,0.50
2019-01-30T03:11:11.190Z,0.50
2019-01-30T03:13:40.381Z,0.46
2019-01-30T03:16:09.586Z,0.43
2019-01-30T03:18:38.796Z,0.43
2019-01-30T03:21:07.956Z,0.35
2019-01-30T03:23:37.204Z,0.32
2019-01-30T03:26:06.319Z,0.23
2019-01-30T03:28:35.445Z,0.32
2019-01-30T03:31:16.928Z,0.27
2019-01-30T03:33:35.475Z,0.26
2019-01-30T03:36:04.694Z,0.09
2019-01-30T03:38:33.941Z,0.17
2019-01-30T03:41:03.065Z,0.09
2019-01-30T03:43:32.437Z,0.06
2019-01-30T03:46:01.744Z,0.09
2019-01-30T03:48:30.923Z,0.05
2019-01-30T03:51:00.096Z,0.04
2019-01-30T03:53:29.298Z,0.08
2019-01-30T03:55:58.461Z,0.06
2019-01-30T03:58:27.594Z,0.20
2019-01-30T04:00:56.692Z,0.23
2019-01-30T04:03:25.854Z,0.24
2019-01-30T04:05:55.176Z,0.31
2019-01-30T04:08:24.407Z,0.30
2019-01-30T04:10:53.470Z,0.41
2019-01-30T04:13:22.821Z,0.40
2019-01-30T04:15:51.922Z,0.44
2019-01-30T04:18:21.067Z,0.44
2019-01-30T04:20:50.205Z,0.42
2019-01-30T04:23:19.356Z,0.48
2019-01-30T04:25:48.743Z,0.52
2019-01-30T04:28:18.007Z,0.61
2019-01-30T04:30:47.264Z,0.63
2019-01-30T04:33:16.604Z,0.62
2019-01-30T04:35:45.961Z,0.63
2019-01-30T04:38:15.268Z,0.66
2019-01-30T04:40:44.521Z,0.73
2019-01-30T04:43:13.656Z,0.73
2019-01-30T04:45:42.799Z,0.71
2019-01-30T04:48:12.079Z,0.67
2019-01-30T04:50:41.455Z,0.74
2019-01-30T04:53:11.985Z,0.78
2019-01-30T04:55:41.081Z,0.74
2019-01-30T04:58:10.348Z,0.74
2019-01-30T05:00:39.575Z,0.78
2019-01-30T05:03:08.680Z,0.79
2019-01-30T05:05:39.435Z,0.77
2019-01-30T05:08:08.695Z,0.82
2019-01-30T05:10:37.809Z,0.83
2019-01-30T05:13:07.059Z,0.75
2019-01-30T05:15:36.241Z,0.80
2019-01-30T05:18:06.765Z,0.75
2019-01-30T05:20:35.978Z,0.80
2019-01-30T05:23:05.179Z,0.82
2019-01-30T05:25:37.290Z,0.78
2019-01-30T05:28:06.701Z,0.75
2019-01-30T05:30:36.301Z,0.73
2019-01-30T05:33:05.867Z,0.78
2019-01-30T05:36:11.840Z,0.77
2019-01-30T05:38:41.267Z,0.77
2019-01-30T05:41:10.670Z,0.76
2019-01-30T05:43:42.506Z,0.75
2019-01-30T05:46:11.077Z,0.79
2019-01-30T05:48:40.389Z,0.83
2019-01-30T05:51:09.816Z,0.81
2019-01-30T05:53:39.281Z,0.82
2019-01-30T05:56:08.626Z,0.80
2019-01-30T05:58:39.374Z,0.84
2019-01-30T06:01:08.826Z,0.87
2019-01-30T06:03:44.119Z,0.86
2019-01-30T06:06:15.318Z,0.86
2019-01-30T06:08:42.299Z,0.87
2019-01-30T06:11:18.753Z,0.89
2019-01-30T06:13:45.300Z,0.87
2019-01-30T06:16:18.505Z,0.90
2019-01-30T06:18:49.787Z,0.91
2019-01-30T06:21:22.277Z,0.94
2019-01-30T06:23:51.962Z,0.97
2019-01-30T06:26:26.100Z,0.93
2019-01-30T06:28:58.263Z,0.95
2019-01-30T06:31:27.658Z,0.95
2019-01-30T06:34:03.301Z,0.95
2019-01-30T06:36:28.258Z,1.01
2019-01-30T06:38:57.857Z,0.99
2019-01-30T06:41:41.702Z,1.01
2019-01-30T06:44:00.410Z,1.00
2019-01-30T06:46:31.490Z,0.96
2019-01-30T06:49:02.855Z,0.95
2019-01-30T06:51:31.927Z,0.98
2019-01-30T06:54:01.238Z,0.93
2019-01-30T06:56:30.490Z,0.93
2019-01-30T06:58:59.655Z,0.98
2019-01-30T07:01:28.836Z,0.94
2019-01-30T07:03:59.363Z,0.91
2019-01-30T07:06:28.548Z,0.93
2019-01-30T07:08:57.758Z,0.96
2019-01-30T07:11:26.852Z,0.95
2019-01-30T07:13:56.024Z,0.95
2019-01-30T07:16:25.105Z,0.94
2019-01-30T07:18:54.208Z,0.92
2019-01-30T07:21:23.379Z,0.89
2019-01-30T07:23:52.702Z,0.88
2019-01-30T07:26:21.833Z,0.92
2019-01-30T07:28:50.996Z,0.88
2019-01-30T07:31:20.131Z,0.89
2019-01-30T07:33:49.218Z,0.87
2019-01-30T07:36:18.399Z,0.89
2019-01-30T07:38:47.450Z,0.89
2019-01-30T07:41:16.610Z,0.91
2019-01-30T07:43:45.696Z,0.89
2019-01-30T07:46:14.881Z,0.89
2019-01-30T07:48:43.968Z,0.92
2019-01-30T07:51:15.707Z,0.93
2019-01-30T07:53:43.898Z,0.92
2019-01-30T07:56:13.028Z,0.99
2019-01-30T07:58:42.176Z,0.88
2019-01-30T08:01:11.405Z,0.96
2019-01-30T08:03:40.573Z,1.06
2019-01-30T08:06:09.744Z,1.05
2019-01-30T08:08:38.855Z,1.03
2019-01-30T08:11:09.268Z,1.05
2019-01-30T08:13:38.314Z,1.14
2019-01-30T08:16:07.376Z,1.15
2019-01-30T08:18:36.503Z,1.04
2019-01-30T08:21:05.639Z,1.04
2019-01-30T08:23:34.975Z,1.02
2019-01-30T08:26:04.280Z,1.20
2019-01-30T08:28:33.476Z,1.13
2019-01-30T08:31:03.062Z,1.14
2019-01-30T08:33:32.154Z,1.14
2019-01-30T08:36:01.277Z,1.19
2019-01-30T08:38:30.407Z,1.28
2019-01-30T08:40:59.507Z,1.22
2019-01-30T08:43:28.661Z,1.33
2019-01-30T08:45:57.803Z,1.32
2019-01-30T08:48:28.523Z,1.34
2019-01-30T08:50:57.805Z,1.47
2019-01-30T08:53:26.934Z,1.43
2019-01-30T08:55:56.059Z,1.48
2019-01-30T08:58:25.178Z,1.50
2019-01-30T09:00:54.299Z,1.52
2019-01-30T09:03:23.466Z,1.59
2019-01-30T09:05:52.599Z,1.74
2019-01-30T09:08:21.748Z,1.64
2019-01-30T09:10:50.851Z,1.81
2019-01-30T09:13:20.008Z,1.81
2019-01-30T09:15:49.270Z,1.70
2019-01-30T09:18:18.390Z,1.82
2019-01-30T09:20:47.631Z,1.85
2019-01-30T09:23:16.752Z,1.69
2019-01-30T09:25:45.977Z,1.78
2019-01-30T09:28:15.101Z,1.68
2019-01-30T09:30:44.320Z,1.74
2019-01-30T09:33:13.485Z,1.79
2019-01-30T09:35:42.671Z,1.90
2019-01-30T09:38:11.813Z,1.87
2019-01-30T09:40:41.033Z,1.72
2019-01-30T09:43:10.241Z,1.75
2019-01-30T09:45:39.357Z,1.68
2019-01-30T09:48:08.626Z,1.64
2019-01-30T09:50:37.799Z,1.69
2019-01-30T09:53:06.897Z,1.63
2019-01-30T09:55:36.036Z,1.62
2019-01-30T09:58:05.144Z,1.45
2019-01-30T10:00:36.251Z,1.34
2019-01-30T10:03:05.345Z,1.33
2019-01-30T10:05:34.523Z,1.59
2019-01-30T10:08:03.667Z,1.49
2019-01-30T10:10:34.672Z,1.50
2019-01-30T10:13:03.939Z,1.49
2019-01-30T10:15:37.423Z,1.47
2019-01-30T10:18:06.890Z,1.29
2019-01-30T10:20:36.655Z,1.71
2019-01-30T10:23:05.949Z,1.58
2019-01-30T10:25:35.045Z,1.69
2019-01-30T10:28:04.280Z,1.90
2019-01-30T10:30:35.129Z,1.96
2019-01-30T10:33:04.226Z,1.74
2019-01-30T10:35:33.311Z,1.86
2019-01-30T10:38:02.427Z,1.98
2019-01-30T10:40:31.538Z,2.23
2019-01-30T10:43:00.679Z,2.42
2019-01-30T10:45:29.774Z,2.55
2019-01-30T10:47:58.879Z,2.78
2019-01-30T10:50:29.013Z,2.82
2019-01-30T10:52:58.201Z,2.60
2019-01-30T10:55:28.869Z,2.53
2019-01-30T10:57:59.586Z,2.74
2019-01-30T11:00:34.431Z,2.14
2019-01-30T11:03:03.611Z,2.60
2019-01-30T11:05:32.777Z,2.51
2019-01-30T11:08:01.957Z,2.54
2019-01-30T11:10:31.057Z,2.58
2019-01-30T11:13:00.253Z,2.36
2019-01-30T11:15:29.422Z,2.52
2019-01-30T11:17:58.604Z,2.58
2019-01-30T11:20:29.834Z,2.53
2019-01-30T11:22:59.142Z,2.40
2019-01-30T11:25:31.015Z,2.45
2019-01-30T11:28:00.230Z,2.51
2019-01-30T11:30:29.419Z,2.56
2019-01-30T11:32:58.620Z,2.66
2019-01-30T11:35:27.887Z,2.47
2019-01-30T11:37:57.266Z,2.27
2019-01-30T11:40:26.561Z,2.40
2019-01-30T11:42:55.888Z,2.33
2019-01-30T11:45:30.632Z,2.47
2019-01-30T11:48:01.516Z,2.68
2019-01-30T11:50:30.823Z,2.84
2019-01-30T11:53:00.106Z,2.52
2019-01-30T11:55:29.388Z,2.56
2019-01-30T11:57:58.808Z,2.82
2019-01-30T12:00:33.403Z,2.83
2019-01-30T12:03:06.251Z,2.55
2019-01-30T12:05:35.624Z,2.72
2019-01-30T12:08:07.289Z,2.73
2019-01-30T12:10:37.219Z,2.85
2019-01-30T12:13:06.407Z,2.98
2019-01-30T12:15:38.594Z,2.72
2019-01-30T12:18:08.015Z,2.74
2019-01-30T12:20:40.167Z,2.69
2019-01-30T12:23:09.417Z,2.76
2019-01-30T12:25:38.778Z,2.96
2019-01-30T12:28:08.097Z,2.67
2019-01-30T12:30:37.301Z,2.89
2019-01-30T12:33:08.597Z,3.00
2019-01-30T12:35:39.061Z,2.78
2019-01-30T12:38:08.313Z,2.74
2019-01-30T12:40:37.580Z,2.57
2019-01-30T12:43:06.929Z,2.40
2019-01-30T12:45:36.591Z,2.54
2019-01-30T12:48:06.194Z,2.66
2019-01-30T12:50:35.445Z,2.86
2019-01-30T12:53:06.344Z,2.45
2019-01-30T12:55:35.690Z,2.36
2019-01-30T12:58:04.901Z,2.26
2019-01-30T13:00:38.796Z,2.49
2019-01-30T13:03:07.404Z,2.58
2019-01-30T13:05:36.583Z,2.22
2019-01-30T13:08:09.010Z,2.22
2019-01-30T13:10:38.209Z,2.24
2019-01-30T13:13:07.410Z,2.03
2019-01-30T13:15:36.692Z,2.07
2019-01-30T13:18:17.551Z,2.12
2019-01-30T13:20:39.786Z,2.24
2019-01-30T13:23:08.616Z,1.84
2019-01-30T13:25:39.028Z,1.92
2019-01-30T13:28:08.271Z,2.23
2019-01-30T13:30:43.628Z,2.00
2019-01-30T13:33:12.153Z,1.88
2019-01-30T13:35:42.625Z,2.19
2019-01-30T13:38:11.961Z,1.96
2019-01-30T13:40:43.182Z,2.11
2019-01-30T13:43:12.383Z,2.20
2019-01-30T13:45:41.484Z,2.30
2019-01-30T13:48:15.714Z,2.04
2019-01-30T13:50:44.947Z,2.10
2019-01-30T13:53:14.479Z,2.02
2019-01-30T13:55:45.211Z,1.99
2019-01-30T13:58:14.309Z,2.05
2019-01-30T14:00:43.550Z,2.21
2019-01-30T14:03:12.876Z,2.34
2019-01-30T14:05:42.085Z,2.08
2019-01-30T14:08:12.696Z,1.82
2019-01-30T14:10:41.899Z,1.97
2019-01-30T14:13:11.173Z,2.14
2019-01-30T14:15:41.572Z,2.02
2019-01-30T14:18:15.242Z,2.16
2019-01-30T14:20:41.686Z,2.15
2019-01-30T14:23:10.888Z,2.11
2019-01-30T14:25:40.157Z,2.06
2019-01-30T14:28:09.381Z,2.10
2019-01-30T14:30:41.451Z,2.06
2019-01-30T14:33:10.645Z,1.91
2019-01-30T14:35:46.506Z,2.05
2019-01-30T14:38:15.701Z,2.00
2019-01-30T14:40:44.977Z,1.89
2019-01-30T14:43:14.200Z,1.96
2019-01-30T14:46:06.712Z,1.99
2019-01-30T14:48:37.226Z,2.10
2019-01-30T14:51:32.615Z,1.78
2019-01-30T14:54:03.314Z,1.92
2019-01-30T14:56:33.048Z,1.90
2019-01-30T14:59:03.830Z,1.91
2019-01-30T15:02:20.440Z,1.84
2019-01-30T15:04:49.781Z,1.90
2019-01-30T15:07:47.297Z,1.93
2019-01-30T15:10:44.733Z,1.91
2019-01-30T15:13:12.859Z,1.73
2019-01-30T15:16:36.281Z,1.88
2019-01-30T15:19:27.503Z,1.69
2019-01-30T15:22:00.857Z,1.97
2019-01-30T15:24:34.286Z,1.90
2019-01-30T15:27:36.665Z,1.80
2019-01-30T15:30:57.285Z,1.89
2019-01-30T15:34:58.291Z,1.95
2019-01-30T15:36:42.517Z,1.68
2019-01-30T15:39:23.168Z,1.72
2019-01-30T15:41:50.143Z,1.85
2019-01-30T15:44:19.544Z,1.93
2019-01-30T15:46:51.583Z,1.96
2019-01-30T15:49:26.192Z,1.89
2019-01-30T15:52:26.995Z,1.96
2019-01-30T15:55:00.676Z,1.82
2019-01-30T16:01:36.965Z,1.89
2019-01-30T16:04:48.215Z,1.89
2019-01-30T16:07:24.883Z,1.92
2019-01-30T16:09:56.027Z,1.92
2019-01-30T16:12:28.597Z,2.00
2019-01-30T16:15:03.498Z,1.91
2019-01-30T16:17:34.787Z,1.93
2019-01-30T16:20:03.890Z,1.95
2019-01-30T16:22:40.612Z,1.85
2019-01-30T16:25:09.970Z,1.86
2019-01-30T16:27:44.586Z,1.92
2019-01-30T16:30:18.915Z,1.81
2019-01-30T16:32:50.544Z,1.92
2019-01-30T16:35:23.988Z,1.92
2019-01-30T16:37:53.339Z,1.78
2019-01-30T16:40:24.067Z,1.94
2019-01-30T16:42:57.471Z,1.93
2019-01-30T16:45:30.922Z,1.87
2019-01-30T16:48:00.504Z,1.85
2019-01-30T16:50:46.819Z,1.86
2019-01-30T16:53:50.688Z,1.87
2019-01-30T16:57:12.644Z,1.92
2019-01-30T16:59:34.553Z,1.83
2019-01-30T17:02:27.408Z,1.98
2019-01-30T17:05:11.350Z,1.93
2019-01-30T17:12:49.733Z,1.71
2019-01-30T17:18:39.074Z,1.78
2019-01-30T17:21:20.654Z,1.79
2019-01-30T17:23:59.602Z,1.89
2019-01-30T17:27:48.556Z,1.83
2019-01-30T17:29:57.566Z,1.84
2019-01-30T17:36:17.922Z,1.86
2019-01-30T17:38:44.618Z,1.83
2019-01-30T17:42:21.884Z,1.75
2019-01-30T17:44:06.890Z,1.85
2019-01-30T17:47:13.729Z,1.89
2019-01-30T17:49:43.221Z,1.92
2019-01-30T17:52:32.774Z,1.93
2019-01-30T17:55:16.271Z,1.98
2019-01-30T17:57:43.112Z,1.85
2019-01-30T18:00:25.934Z,1.98
2019-01-30T18:02:55.368Z,2.01
2019-01-30T18:05:24.683Z,1.99
2019-01-30T18:07:54.030Z,1.84
2019-01-30T18:11:05.878Z,1.77
2019-01-30T18:17:27.244Z,1.97
2019-01-30T18:19:46.172Z,1.98
2019-01-30T18:23:10.651Z,1.92
2019-01-30T18:25:49.018Z,1.76
2019-01-30T18:29:20.184Z,1.87
2019-01-30T18:31:29.703Z,1.92
2019-01-30T18:34:36.201Z,1.85
2019-01-30T18:37:02.830Z,1.76
2019-01-30T18:39:32.158Z,1.85
2019-01-30T18:42:01.464Z,1.88
2019-01-30T18:44:34.398Z,1.90
2019-01-30T18:47:26.696Z,1.73
2019-01-30T18:49:56.073Z,1.71
2019-01-30T18:52:27.158Z,1.77
2019-01-30T18:54:56.712Z,1.80
2019-01-30T18:57:26.088Z,1.82
2019-01-30T18:59:55.359Z,1.79
2019-01-30T19:02:26.463Z,1.85
2019-01-30T19:04:55.784Z,1.84
2019-01-30T19:07:25.005Z,1.85
2019-01-30T19:09:54.260Z,1.83
2019-01-30T19:12:23.683Z,1.79
2019-01-30T19:14:55.892Z,1.79
2019-01-30T19:17:30.222Z,2.06
2019-01-30T19:20:03.889Z,1.85
2019-01-30T19:28:16.061Z,1.91
2019-01-30T19:30:45.191Z,1.80
2019-01-30T19:33:15.641Z,1.76
2019-01-30T19:35:46.976Z,1.77
2019-01-30T19:38:16.305Z,1.77
2019-01-30T19:40:45.509Z,1.75
2019-01-30T19:43:14.773Z,1.72
2019-01-30T19:45:43.946Z,1.82
2019-01-30T19:48:13.118Z,1.83
2019-01-30T19:50:42.312Z,1.82
2019-01-30T19:53:11.567Z,1.82
2019-01-30T19:55:40.748Z,1.75
2019-01-30T19:58:12.223Z,1.80
2019-01-30T20:00:48.964Z,1.81
2019-01-30T20:03:24.239Z,1.81
2019-01-30T20:05:53.428Z,1.84
2019-01-30T20:08:23.533Z,1.79
2019-01-30T20:10:52.665Z,1.78
2019-01-30T20:13:21.888Z,1.68
2019-01-30T20:15:51.088Z,1.73
2019-01-30T20:18:20.228Z,1.71
2019-01-30T20:20:49.517Z,1.76
2019-01-30T20:23:20.154Z,1.78
2019-01-30T20:25:49.478Z,1.81
2019-01-30T20:28:19.720Z,1.84
2019-01-30T20:30:48.888Z,1.87
2019-01-30T20:33:18.034Z,1.88
2019-01-30T20:35:47.493Z,1.77
2019-01-30T20:38:16.626Z,1.88
2019-01-30T20:40:45.875Z,1.91
2019-01-30T20:43:15.021Z,1.84
2019-01-30T20:45:44.219Z,1.79
2019-01-30T20:48:13.388Z,1.97
2019-01-30T20:50:59.362Z,1.85
2019-01-30T20:53:28.544Z,1.93
2019-01-30T20:55:57.751Z,1.79
2019-01-30T20:58:26.884Z,1.92
2019-01-30T21:00:56.047Z,1.99
2019-01-30T21:03:26.214Z,1.97
2019-01-30T21:05:55.391Z,1.90
2019-01-30T21:08:24.520Z,1.92
2019-01-30T21:10:53.710Z,1.98
2019-01-30T21:13:22.845Z,1.96
2019-01-30T21:15:53.081Z,1.98
2019-01-30T21:18:22.285Z,1.94
2019-01-30T21:20:51.474Z,1.99
2019-01-30T21:23:20.647Z,1.86
2019-01-30T21:25:50.150Z,1.82
2019-01-30T21:28:19.428Z,1.95
2019-01-30T21:30:48.675Z,2.00
2019-01-30T21:33:17.951Z,2.04
2019-01-30T21:35:47.240Z,1.94
2019-01-30T21:38:16.532Z,1.95
2019-01-30T21:40:45.733Z,1.87
2019-01-30T21:43:14.975Z,1.82
2019-01-30T21:45:49.955Z,1.88
2019-01-30T21:48:43.313Z,1.99
2019-01-30T21:50:51.665Z,1.92
2019-01-30T21:53:20.936Z,1.90
2019-01-30T21:55:50.074Z,1.91
2019-01-30T21:58:19.310Z,1.95
2019-01-30T22:00:48.449Z,2.02
2019-01-30T22:03:17.671Z,2.00
2019-01-30T22:05:46.871Z,1.93
2019-01-30T22:08:16.378Z,2.05
2019-01-30T22:10:50.151Z,2.10
2019-01-30T22:13:19.330Z,2.09
2019-01-30T22:15:48.480Z,2.17
2019-01-30T22:18:17.804Z,2.08
2019-01-30T22:20:46.991Z,2.14
2019-01-30T22:23:16.164Z,2.10
2019-01-30T22:25:45.319Z,2.07
2019-01-30T22:28:14.473Z,2.15
2019-01-30T22:30:43.669Z,2.06
2019-01-30T22:33:12.855Z,2.11
2019-01-30T22:35:42.019Z,1.98
2019-01-30T22:38:12.827Z,2.08
2019-01-30T22:40:42.208Z,1.97
2019-01-30T22:43:11.391Z,2.07
2019-01-30T22:45:40.541Z,1.97
2019-01-30T22:48:09.664Z,1.95
2019-01-30T22:50:38.832Z,1.92
2019-01-30T22:53:07.954Z,1.93
2019-01-30T22:55:37.072Z,1.81
2019-01-30T22:58:06.201Z,1.85
2019-01-30T23:01:04.827Z,1.70
2019-01-30T23:04:10.225Z,1.65
2019-01-30T23:07:05.516Z,1.67
2019-01-30T23:10:21.214Z,1.60
2019-01-30T23:13:37.543Z,1.54
2019-01-30T23:16:49.648Z,1.57
2019-01-30T23:19:39.484Z,1.57
2019-01-30T23:22:38.067Z,1.48
2019-01-30T23:25:51.168Z,1.56
2019-01-30T23:29:06.231Z,1.49
2019-01-30T23:31:50.142Z,1.47
2019-01-30T23:34:46.964Z,1.41
2019-01-30T23:37:49.681Z,1.41
2019-01-30T23:40:54.641Z,1.39
2019-01-30T23:43:37.953Z,1.37
2019-01-30T23:46:41.380Z,1.28
2019-01-30T23:49:31.842Z,1.31
2019-01-30T23:52:38.039Z,1.35
2019-01-30T23:55:42.727Z,1.29
2019-01-30T23:58:36.829Z,1.25
